Flight Track Log - Related Links

Times and Time Zones

All times are in EDT time to prevent confusion due to time zone crossing. See the N860BA flight status page for this flight to view local times or setup timezone preferences in your user account.

Time Position Orientation Groundspeed Altitude Reporting Facility
EDT Latitude Longitude Course Direction KTS MPH feet Rate Location/Type
Mon 11:47:32 PM 33.4000 -112.1167 244° Southwest 250 288 5,300  Level Phoenix TRACON
Mon 11:48:20 PM 33.4000 -112.2000 270° West 274 315 8,300 3,289 Climbing Phoenix TRACON
Mon 11:49:47 PM 33.4056 -112.3172 273° West 296 341 12,700 3,041 Climbing Albuquerque Center
Mon 11:50:48 PM 33.4161 -112.4239 277° West 318 366 15,800 2,607 Climbing Albuquerque Center
Mon 11:51:49 PM 33.4258 -112.5317 276° West 325 374 18,000 1,967 Climbing Albuquerque Center
Mon 11:52:50 PM 33.4386 -112.6631 277° West 362 417 19,800 1,820 Climbing Albuquerque Center
Mon 11:53:51 PM 33.4500 -112.7925 276° West 384 442 21,700 1,869 Climbing Albuquerque Center
Mon 11:54:52 PM 33.4722 -112.9269 281° West 404 465 23,600 2,115 Climbing Albuquerque Center
Mon 11:55:53 PM 33.5033 -113.0861 283° West 411 473 26,000 2,164 Climbing Albuquerque Center
Mon 11:56:54 PM 33.5303 -113.2236 283° West 420 483 28,000 1,967 Climbing Albuquerque Center
Mon 11:57:55 PM 33.5561 -113.3586 283° West 420 483 30,000 2,016 Climbing Albuquerque Center
Mon 11:58:56 PM 33.5806 -113.4925 282° West 416 479 32,100 1,721 Climbing Albuquerque Center
Mon 11:59:57 PM 33.6056 -113.6244 283° West 410 472 33,500 1,033 Climbing Albuquerque Center
Tue 12:00:58 AM 33.6294 -113.7567 282° West 416 479 34,200 639 Climbing Albuquerque Center
Tue 12:01:59 AM 33.6558 -113.9003 282° West 433 498 34,800 639 Climbing Albuquerque Center
Tue 12:03:00 AM 33.6839 -114.0469 283° West 446 513 35,500 639 Climbing Albuquerque Center
Tue 12:04:01 AM 33.7094 -114.1956 282° West 452 520 36,100 590 Climbing Albuquerque Center
Tue 12:05:02 AM 33.7369 -114.3492 282° West 458 527 36,700 590 Climbing Albuquerque Center
Tue 12:06:03 AM 33.7661 -114.4997 283° West 462 532 37,300 609 Climbing Albuquerque Center
Tue 12:07:10 AM 33.8125 -114.6697 288° West 464 534 38,000 328 Climbing Los Angeles Center
Tue 12:08:11 AM 33.8508 -114.8186 287° West 466 536 38,000  Level Los Angeles Center
Tue 12:09:12 AM 33.8964 -114.9942 287° West 461 531 38,000  Level Los Angeles Center
Tue 12:10:14 AM 33.9333 -115.1378 287° West 453 521 38,000  Level Los Angeles Center
Tue 12:11:15 AM 33.9683 -115.2808 286° West 448 516 38,000  Level Los Angeles Center
Tue 12:12:16 AM 33.9961 -115.3950 286° West 446 513 38,000  Level Los Angeles Center
Tue 12:13:18 AM 34.0394 -115.5642 287° West 442 509 38,000  Level Los Angeles Center
Tue 12:14:19 AM 34.0739 -115.7053 286° West 441 507 38,000  Level Los Angeles Center
Tue 12:15:20 AM 34.1081 -115.8458 286° West 440 506 38,000  Level Los Angeles Center
Tue 12:16:22 AM 34.1439 -115.9919 287° West 435 501 38,000  Level Los Angeles Center
Tue 12:17:23 AM 34.1783 -116.1333 286° West 438 504 38,000  Level Los Angeles Center
Tue 12:18:24 AM 34.2119 -116.2742 286° West 437 503 38,000  Level Los Angeles Center
Tue 12:19:26 AM 34.2403 -116.3881 287° West 441 507 38,000  Level Los Angeles Center
Tue 12:20:27 AM 34.2811 -116.5597 286° West 442 509 38,000  Level Los Angeles Center
Tue 12:21:28 AM 34.3233 -116.7308 287° West 443 510 38,000  Level Los Angeles Center
Tue 12:22:30 AM 34.3572 -116.8742 286° West 443 510 38,000  Level Los Angeles Center
Tue 12:23:31 AM 34.3900 -117.0183 285° West 444 511 38,000  Level Los Angeles Center
Tue 12:24:32 AM 34.4242 -117.1631 286° West 447 514 38,000  Level Los Angeles Center
Tue 12:25:34 AM 34.4581 -117.3067 286° West 443 510 38,000  Level Los Angeles Center
Tue 12:26:35 AM 34.4906 -117.4528 285° West 446 513 38,000  Level Los Angeles Center
Tue 12:27:36 AM 34.5242 -117.5975 286° West 445 512 38,000  Level Los Angeles Center
Tue 12:28:37 AM 34.5578 -117.7436 286° West 448 516 38,000  Level Los Angeles Center
Tue 12:29:39 AM 34.5903 -117.8892 285° West 447 514 38,000  Level Los Angeles Center
Tue 12:30:40 AM 34.6161 -118.0064 285° West 449 517 38,000 -344 Level Los Angeles Center
Tue 12:31:41 AM 34.6950 -118.1564 303° West 441 507 37,300 -1,131 Descending Los Angeles Center
Tue 12:32:42 AM 34.7728 -118.2728 309° West 441 507 35,700 -1,610 Descending Los Angeles Center
Tue 12:33:44 AM 34.8700 -118.4100 311° West 443 510 34,000 -1,854 Descending Los Angeles Center
Tue 12:34:45 AM 34.9517 -118.5294 310° West 444 511 31,900 -1,967 Descending Los Angeles Center
Tue 12:35:46 AM 35.0456 -118.6281 319° Northwest 465 535 30,000 -1,869 Descending Los Angeles Center
Tue 12:36:47 AM 35.1661 -118.6867 338° Northwest 469 540 28,100 -1,854 Descending Los Angeles Center
Tue 12:37:49 AM 35.2942 -118.7428 340° North 485 558 26,200 -1,902 Descending Los Angeles Center
Tue 12:38:50 AM 35.4194 -118.7983 340° North 483 556 24,200 -1,918 Descending Los Angeles Center
Tue 12:39:51 AM 35.5425 -118.8544 340° North 478 550 22,300 -1,918 Descending Los Angeles Center
Tue 12:40:52 AM 35.6678 -118.9117 340° North 480 552 20,300 -1,918 Descending Los Angeles Center
Tue 12:41:53 AM 35.7911 -118.9669 340° North 478 550 18,400 -1,902 Descending Los Angeles Center
Tue 12:42:55 AM 35.9114 -119.0217 340° North 470 541 16,400 -2,089 Descending Los Angeles Center
Tue 12:43:45 AM 36.0200 -119.0736 339° North 441 507 14,500 -1,351 Descending Oakland Center
Tue 12:44:46 AM 36.1236 -119.1225 339° North 403 464 13,900 -393 Descending Oakland Center
Tue 12:45:47 AM 36.2144 -119.1664 339° North 356 410 13,700 -590 Descending Oakland Center
Tue 12:46:48 AM 36.2975 -119.2056 339° North 325 374 12,700 -1,082 Descending Oakland Center
Tue 12:47:49 AM 36.3769 -119.2433 339° North 309 356 11,500 -1,082 Descending Oakland Center
Tue 12:48:50 AM 36.4511 -119.2792 339° North 290 334 10,500 -1,131 Descending Oakland Center
Tue 12:49:51 AM 36.5244 -119.3147 339° North 284 327 9,200 -1,587 Descending Oakland Center
Tue 12:50:51 AM 36.5858 -119.3819 319° Northwest 299 344 7,300 -2,033 Descending Oakland Center
Tue 12:51:52 AM 36.6306 -119.4644 304° West 290 334 5,100 -1,869 Descending Oakland Center
Tue 12:52:53 AM 36.6675 -119.5253 307° West 228 262 3,500 -1,377 Descending Oakland Center
Tue 12:53:54 AM 36.7086 -119.5975 305° West 216 249 2,300 -836 Descending Oakland Center
Tue 12:54:55 AM 36.7328 -119.6444 303° West 166 191 1,800 -639 Descending Oakland Center
Tue 12:55:56 AM 36.7525 -119.6789 306° West 127 146 1,000 -689 Descending Oakland Center
Tue 12:56:57 AM 36.7697 -119.7078 307° West 109 125 400 -590 Descending Oakland Center
Tue 12:58:00 AM 36.7667 -119.7167 297° West  Level FlightAware Approximate
Tue 01:05:00 AM 36.7766 -119.7188 297° West  Level Estimated

Login

Don't have an account? Register now (free) for customized features, flight alerts, and more!